Terminal Aerodrome Forecast
Issued by NWS

Home | Current Version | Previous Version | Text Only | Print | Product List | Glossary On
Versions: 1 2 3 4 5 6 7 8 9 10 11 12 13 14 15 16 17 18
731
FTAK31 PAJN 100543
TAFAPG
TAF
PAPG 100543Z 1006/1106 10005KT P6SM OVC100 WS020/14035KT
     FM100900 12008KT P6SM -RA BKN050 OVC080 WS020/14035KT
     FM101200 12010KT 4SM -RA BR SCT006 SCT010 OVC025
     FM101800 12010G15KT 6SM -SHRA SCT010 SCT025 OVC040
      AMD LTD TO CLD VIS AND WIND 1006/1015=

USA.gov is the U.S. government's official web portal to all federal, state and local government web resources and services.